Time;durP1;ratioP1;P1;durP2;ratioP2;P2;SDS_P1;SDS_P2;PMS_P1;PMS_P2;Temp;Humidity;BMP_temperature;BMP_pressure;BME280_temperature;BME280_humidity;BME280_pressure;Samples;Min_cycle;Max_cycle;Signal;HPM_P1;HPM_P2
2022/08/23 00:00:44;;;;;;;;;2.00;2.00;;;;;23.42;55.49;101050.72;5099233;27;46157;-55
2022/08/23 00:03:10;;;;;;;;;1.00;1.00;;;;;23.39;55.57;101057.44;5099206;27;45234;-54
2022/08/23 00:05:35;;;;;;;;;2.75;1.50;;;;;23.39;55.60;101051.19;5099441;27;45404;-55
2022/08/23 00:08:01;;;;;;;;;1.25;1.00;;;;;23.34;55.53;101051.84;5099647;27;45438;-55
2022/08/23 00:10:26;;;;;;;;;3.00;2.50;;;;;23.31;55.49;101055.00;5099056;27;48075;-55
2022/08/23 00:12:52;;;;;;;;;0.25;0.25;;;;;23.29;55.71;101048.13;5099411;27;45318;-56
2022/08/23 00:15:19;;;;;;;;;2.00;1.00;;;;;23.25;55.84;101045.03;5099109;27;45501;-55
2022/08/23 00:17:46;;;;;;;;;1.40;1.00;;;;;23.22;55.95;101045.50;5099128;27;45283;-55
2022/08/23 00:20:14;;;;;;;;;1.00;1.00;;;;;23.22;56.01;101042.78;5098888;27;47244;-58
2022/08/23 00:22:39;;;;;;;;;0.60;0.60;;;;;23.20;55.78;101053.00;5098839;27;45242;-56
2022/08/23 00:25:08;;;;;;;;;1.00;1.00;;;;;23.20;56.18;101047.59;5099109;27;45176;-55
2022/08/23 00:27:33;;;;;;;;;0.80;0.80;;;;;23.21;56.13;101048.41;5099196;27;45542;-53
2022/08/23 00:29:59;;;;;;;;;1.25;1.25;;;;;23.21;56.06;101046.53;5098729;27;46392;-56
2022/08/23 00:32:29;;;;;;;;;2.00;2.00;;;;;23.17;56.30;101029.03;5098839;27;45383;-54
2022/08/23 00:34:55;;;;;;;;;1.00;1.00;;;;;23.12;56.26;101018.00;5098881;27;45464;-55
2022/08/23 00:37:21;;;;;;;;;0.80;0.80;;;;;23.23;56.43;101039.00;5098814;27;45292;-54
2022/08/23 00:39:47;;;;;;;;;1.60;1.60;;;;;23.15;56.34;101026.53;5098554;27;45265;-55
2022/08/23 00:47:59;;;;;;;;;1.75;1.75;;;;;23.23;56.88;101040.91;5098746;27;45390;-55
2022/08/23 00:50:47;;;;;;;;;1.60;1.60;;;;;23.25;56.28;101041.47;5098530;27;45211;-55
2022/08/23 00:53:30;;;;;;;;;3.80;1.80;;;;;23.27;56.35;101042.09;5098509;27;45331;-55
2022/08/23 00:56:00;;;;;;;;;0.80;0.80;;;;;23.25;56.57;101036.88;5098581;27;45245;-55
2022/08/23 00:58:26;;;;;;;;;1.80;1.80;;;;;23.30;56.85;101034.34;5098843;27;45705;-56
2022/08/23 01:00:53;;;;;;;;;1.25;1.00;;;;;23.33;56.79;101042.03;5097990;27;45982;-55
2022/08/23 01:03:21;;;;;;;;;2.40;2.40;;;;;23.31;56.78;101041.44;5098144;27;45223;-55
2022/08/23 01:05:56;;;;;;;;;4.20;3.20;;;;;23.32;56.60;101042.25;5098420;27;45394;-54
2022/08/23 01:08:25;;;;;;;;;3.75;2.00;;;;;23.18;56.86;101028.00;5098365;27;45358;-55
2022/08/23 01:11:14;;;;;;;;;1.80;1.80;;;;;23.22;57.11;101044.63;5098342;27;45402;-53
2022/08/23 01:13:50;;;;;;;;;4.60;2.00;;;;;23.15;57.47;101042.81;5087116;27;45491;-54
2022/08/23 01:16:24;;;;;;;;;0.00;0.00;;;;;23.10;58.07;101047.28;5098450;27;45292;-55
2022/08/23 01:18:50;;;;;;;;;1.40;1.40;;;;;23.06;58.17;101055.03;5098468;27;45433;-53
2022/08/23 01:21:42;;;;;;;;;2.80;2.60;;;;;23.05;57.91;101052.50;5098013;27;46264;-55
2022/08/23 01:24:09;;;;;;;;;1.20;1.20;;;;;23.05;58.13;101041.66;5035236;28;45427;-54
2022/08/23 01:26:35;;;;;;;;;3.80;2.00;;;;;22.98;58.21;101049.03;5035248;28;45497;-55
2022/08/23 01:29:03;;;;;;;;;3.00;2.00;;;;;22.99;58.38;101053.41;5035538;28;45506;-54
2022/08/23 01:31:29;;;;;;;;;2.40;2.40;;;;;22.99;58.12;101050.69;5034981;28;48629;-55
2022/08/23 01:34:05;;;;;;;;;3.50;2.00;;;;;22.98;58.09;101049.03;5034889;28;45433;-52
2022/08/23 01:36:31;;;;;;;;;4.80;2.40;;;;;22.98;58.46;101049.03;5035128;28;45522;-53
2022/08/23 01:38:57;;;;;;;;;2.00;2.00;;;;;22.96;58.33;101049.25;5035074;28;45471;-53
2022/08/23 01:41:23;;;;;;;;;5.00;3.00;;;;;22.95;58.46;101044.88;5034362;28;47338;-54
2022/08/23 01:43:50;;;;;;;;;4.00;2.40;;;;;22.92;58.27;101056.16;5034577;28;45362;-53
2022/08/23 01:46:19;;;;;;;;;2.80;2.60;;;;;22.84;58.56;101046.41;5034873;28;45313;-53
2022/08/23 01:48:46;;;;;;;;;2.00;2.00;;;;;22.86;58.43;101057.03;5034763;28;45507;-54
2022/08/23 01:51:15;;;;;;;;;2.00;2.00;;;;;22.77;58.84;101047.50;5034606;28;45427;-55
2022/08/23 01:53:41;;;;;;;;;2.20;2.20;;;;;22.88;58.71;101060.31;5034570;28;45433;-54
2022/08/23 01:56:07;;;;;;;;;1.00;1.00;;;;;22.85;58.40;101053.47;5034612;28;45443;-55
2022/08/23 01:58:34;;;;;;;;;4.00;2.00;;;;;22.82;58.50;101055.78;5034959;28;45522;-55
2022/08/23 02:01:00;;;;;;;;;2.20;2.20;;;;;22.77;59.17;101056.47;5062978;27;47068;-55
2022/08/23 02:03:27;;;;;;;;;2.00;2.00;;;;;22.74;58.96;101053.34;5097328;27;45528;-55
2022/08/23 02:05:52;;;;;;;;;4.20;2.20;;;;;22.75;59.36;101057.72;5097683;27;45294;-54
2022/08/23 02:11:11;;;;;;;;;2.40;2.40;;;;;22.65;59.05;101050.91;5099297;27;45402;-56
2022/08/23 02:13:36;;;;;;;;;3.00;2.00;;;;;22.61;59.15;101055.09;5100945;27;45391;-55
2022/08/23 02:16:02;;;;;;;;;3.00;3.00;;;;;22.56;59.59;101054.94;5101237;27;45436;-54
2022/08/23 02:18:29;;;;;;;;;3.75;3.75;;;;;22.57;59.74;101063.88;5100911;27;45240;-55
2022/08/23 02:20:54;;;;;;;;;3.00;3.00;;;;;22.57;59.66;101062.00;5100936;27;45274;-56
2022/08/23 02:23:21;;;;;;;;;5.00;3.25;;;;;22.59;59.90;101065.34;5100878;27;45413;-56
2022/08/23 02:25:46;;;;;;;;;1.20;1.00;;;;;22.60;60.01;101063.47;5100982;27;45350;-54
2022/08/23 02:28:11;;;;;;;;;2.25;2.00;;;;;22.55;59.82;101066.84;5101372;27;45445;-55
2022/08/23 02:30:38;;;;;;;;;3.00;3.00;;;;;22.46;59.86;101051.88;5100605;27;45429;-56
2022/08/23 02:33:04;;;;;;;;;3.00;3.00;;;;;22.39;60.27;101049.19;5100788;27;45478;-53
2022/08/23 02:35:32;;;;;;;;;3.00;3.00;;;;;22.50;59.93;101065.81;5099590;27;45277;-56
2022/08/23 02:38:02;;;;;;;;;2.00;2.00;;;;;22.45;59.93;101060.22;5099599;27;45385;-55
2022/08/23 02:40:28;;;;;;;;;3.60;2.40;;;;;22.46;60.64;101059.16;5100439;27;46037;-55
2022/08/23 02:42:53;;;;;;;;;4.75;4.75;;;;;22.42;60.43;101069.63;5100521;27;45210;-55
2022/08/23 02:45:19;;;;;;;;;4.00;3.00;;;;;22.37;60.10;101069.41;5100714;27;45444;-54
2022/08/23 02:47:45;;;;;;;;;3.00;3.00;;;;;22.32;60.61;101063.81;5100711;27;45318;-54
2022/08/23 02:50:11;;;;;;;;;3.80;2.20;;;;;22.32;60.47;101061.13;5100144;27;46992;-57
2022/08/23 02:52:37;;;;;;;;;3.00;3.00;;;;;22.27;61.00;101066.34;5100527;27;45416;-54
2022/08/23 02:55:02;;;;;;;;;5.75;4.00;;;;;22.23;61.15;101048.88;5100446;27;45401;-54
2022/08/23 02:57:28;;;;;;;;;3.25;3.25;;;;;22.28;61.14;101062.59;5099468;27;45371;-55
2022/08/23 02:59:53;;;;;;;;;4.00;2.75;;;;;22.30;61.12;101066.75;5100224;27;45345;-54
2022/08/23 03:02:19;;;;;;;;;4.00;4.00;;;;;22.31;61.24;101065.69;5100292;27;45306;-54
2022/08/23 03:04:44;;;;;;;;;3.00;3.00;;;;;22.35;60.77;101064.22;5100486;27;45275;-53
2022/08/23 03:07:10;;;;;;;;;3.00;3.00;;;;;22.33;60.64;101071.75;5099170;27;45456;-55
2022/08/23 03:09:36;;;;;;;;;3.25;3.25;;;;;22.34;60.45;101064.44;5100161;27;45330;-54
2022/08/23 03:12:01;;;;;;;;;4.00;3.00;;;;;22.38;60.26;101074.63;5100285;27;45409;-53
2022/08/23 03:14:27;;;;;;;;;4.50;3.00;;;;;22.42;60.54;101069.63;5100071;27;45378;-55
2022/08/23 03:16:53;;;;;;;;;4.75;4.00;;;;;22.39;60.59;101072.75;5100527;27;45268;-54
2022/08/23 03:19:18;;;;;;;;;3.25;2.00;;;;;22.37;60.95;101070.25;5099788;27;46303;-55
2022/08/23 03:21:44;;;;;;;;;3.75;3.75;;;;;22.39;60.99;101083.59;5098730;27;45279;-55
2022/08/23 03:24:10;;;;;;;;;4.00;4.00;;;;;22.44;60.79;101072.09;5100346;27;45397;-52
2022/08/23 03:26:36;;;;;;;;;2.00;2.00;;;;;22.36;61.04;101054.22;5100025;27;45336;-54
2022/08/23 03:29:02;;;;;;;;;3.00;3.00;;;;;22.47;61.02;101080.63;5099894;27;45959;-53
2022/08/23 03:31:27;;;;;;;;;4.40;3.20;;;;;22.47;61.10;101075.22;5099780;27;45420;-51
2022/08/23 03:33:53;;;;;;;;;2.00;2.00;;;;;22.46;60.94;101065.44;5099804;27;45703;-51
2022/08/23 03:36:19;;;;;;;;;5.00;3.00;;;;;22.42;60.95;101065.03;5100030;27;45359;-52
2022/08/23 03:38:45;;;;;;;;;4.60;3.00;;;;;22.41;61.11;101066.06;5099124;27;46355;-53
2022/08/23 03:41:11;;;;;;;;;5.00;3.50;;;;;22.43;61.54;101074.00;5099657;27;45558;-53
2022/08/23 03:43:37;;;;;;;;;4.25;3.25;;;;;22.41;60.94;101073.34;5099693;27;45247;-53
2022/08/23 03:46:04;;;;;;;;;4.00;2.25;;;;;22.38;60.90;101076.53;5099962;27;45352;-55
2022/08/23 03:48:30;;;;;;;;;3.25;3.25;;;;;22.31;61.38;101070.28;5099400;27;46165;-53
2022/08/23 03:50:55;;;;;;;;;2.75;2.75;;;;;22.32;61.16;101082.78;5099299;27;45425;-53
2022/08/23 03:53:22;;;;;;;;;2.00;2.00;;;;;22.26;61.35;101079.06;5099721;27;45392;-53
2022/08/23 03:55:50;;;;;;;;;3.00;3.00;;;;;22.24;61.44;101085.75;5099687;27;45296;-52
2022/08/23 03:58:16;;;;;;;;;4.00;4.00;;;;;22.22;61.50;101093.28;5099394;27;45499;-52
2022/08/23 04:00:41;;;;;;;;;5.00;3.25;;;;;22.18;61.82;101090.16;5098993;27;45299;-54
2022/08/23 04:03:07;;;;;;;;;5.50;3.00;;;;;22.21;61.90;101095.16;5099319;27;45492;-54
2022/08/23 04:05:32;;;;;;;;;2.50;2.50;;;;;22.24;61.82;101104.72;5099416;27;45498;-53
2022/08/23 04:07:59;;;;;;;;;3.00;1.00;;;;;22.26;61.85;101102.63;5099151;27;47061;-52
2022/08/23 04:10:25;;;;;;;;;2.40;2.40;;;;;22.29;61.88;101111.19;5099209;27;45453;-53
2022/08/23 04:12:52;;;;;;;;;2.60;2.20;;;;;22.32;61.73;101110.72;5099329;27;45321;-53
2022/08/23 04:15:18;;;;;;;;;2.00;2.00;;;;;22.35;61.60;101118.44;5099272;27;45503;-52
2022/08/23 04:17:43;;;;;;;;;1.25;1.25;;;;;22.35;61.96;101114.91;5099070;27;45464;-54
2022/08/23 04:20:09;;;;;;;;;2.25;2.25;;;;;22.34;61.34;101111.34;5098754;27;45468;-54
2022/08/23 04:22:35;;;;;;;;;2.25;2.25;;;;;22.27;61.34;101102.41;5098648;27;45459;-55
2022/08/23 04:25:01;;;;;;;;;2.50;2.50;;;;;22.39;61.50;101116.97;5099253;27;45441;-53
2022/08/23 04:27:27;;;;;;;;;3.80;2.80;;;;;22.40;61.48;101125.91;5098753;27;46180;-54
2022/08/23 04:29:52;;;;;;;;;1.25;1.25;;;;;22.44;61.39;101120.91;5098928;27;45412;-56
2022/08/23 04:32:18;;;;;;;;;3.00;3.00;;;;;22.46;61.58;101116.06;5099006;27;45256;-52
2022/08/23 04:34:43;;;;;;;;;3.00;3.00;;;;;22.48;60.99;101120.25;5098572;27;45401;-52
2022/08/23 04:37:09;;;;;;;;;4.00;4.00;;;;;22.50;61.36;101129.00;5098035;27;46172;-56
2022/08/23 04:42:22;;;;;;;;;3.40;3.40;;;;;22.42;61.28;101121.97;5055651;28;45467;-55
2022/08/23 04:44:48;;;;;;;;;2.00;2.00;;;;;22.39;61.44;101126.97;5056030;28;45423;-54
2022/08/23 04:47:14;;;;;;;;;4.00;2.00;;;;;22.42;61.49;101140.94;5055680;28;46279;-55
2022/08/23 04:49:39;;;;;;;;;4.00;4.00;;;;;22.42;61.60;101140.94;5055473;28;45412;-55
2022/08/23 04:52:05;;;;;;;;;3.25;3.25;;;;;22.41;61.38;101138.41;5055710;28;45338;-55
2022/08/23 04:54:30;;;;;;;;;3.50;3.50;;;;;22.26;61.66;101133.28;5055747;28;45590;-54
2022/08/23 04:56:55;;;;;;;;;2.75;2.75;;;;;22.26;62.16;101140.59;5054807;28;46530;-55
2022/08/23 04:59:21;;;;;;;;;3.75;3.00;;;;;22.26;61.85;101144.13;5055419;28;45273;-53
2022/08/23 05:01:46;;;;;;;;;3.00;3.00;;;;;22.24;62.37;101140.78;5055462;28;45451;-55
2022/08/23 05:04:11;;;;;;;;;5.00;2.00;;;;;22.21;62.07;101148.53;5055782;28;45452;-54
2022/08/23 05:06:37;;;;;;;;;7.25;4.00;;;;;22.14;62.83;101152.06;5055091;28;46229;-54
2022/08/23 05:09:03;;;;;;;;;6.00;4.00;;;;;22.01;62.75;101135.00;5055132;28;45387;-55
2022/08/23 05:11:28;;;;;;;;;5.00;2.75;;;;;22.05;62.56;101152.50;5055600;28;45287;-56
2022/08/23 05:13:55;;;;;;;;;4.00;3.00;;;;;21.99;62.69;101147.91;5055522;28;45379;-55
2022/08/23 05:16:21;;;;;;;;;4.00;3.00;;;;;21.84;63.03;101146.28;5055157;28;45982;-54
2022/08/23 05:18:46;;;;;;;;;4.00;3.25;;;;;21.91;62.79;101157.09;5064233;27;45393;-55
2022/08/23 05:21:18;;;;;;;;;6.50;3.50;;;;;21.85;62.44;101155.22;5098067;27;45652;-54
2022/08/23 05:23:43;;;;;;;;;3.00;3.00;;;;;21.82;62.73;101166.47;5098679;27;45485;-55
2022/08/23 05:26:10;;;;;;;;;3.50;3.00;;;;;21.75;62.43;101163.78;5098136;27;47183;-55
2022/08/23 05:28:38;;;;;;;;;6.60;4.20;;;;;21.71;63.56;101159.00;5097970;27;45320;-55
2022/08/23 05:31:07;;;;;;;;;4.60;3.00;;;;;21.70;63.79;101160.03;5098020;27;45428;-56
2022/08/23 05:33:34;;;;;;;;;7.25;4.25;;;;;21.66;63.47;101165.91;5098293;27;45419;-54
2022/08/23 05:36:01;;;;;;;;;5.00;3.80;;;;;21.64;64.07;101164.41;5097577;27;46911;-53
2022/08/23 05:38:26;;;;;;;;;4.40;4.40;;;;;21.66;63.60;101165.91;5097651;27;45437;-54
2022/08/23 05:40:54;;;;;;;;;4.75;3.00;;;;;21.68;63.50;101169.22;5097553;27;45284;-55
2022/08/23 05:43:20;;;;;;;;;2.75;2.75;;;;;21.61;63.67;101154.84;5096593;27;45331;-54
2022/08/23 05:45:46;;;;;;;;;4.25;2.75;;;;;21.67;64.19;101164.00;5096516;27;46463;-55
2022/08/23 05:48:14;;;;;;;;;4.00;2.25;;;;;21.73;63.67;101182.13;5097531;27;45387;-54
2022/08/23 05:50:40;;;;;;;;;4.80;4.20;;;;;21.77;64.19;101169.81;5096941;27;45463;-55
2022/08/23 05:53:09;;;;;;;;;4.00;4.00;;;;;21.85;64.03;101166.91;5097744;27;45359;-52
2022/08/23 05:55:35;;;;;;;;;4.25;4.00;;;;;22.00;63.31;101163.13;5097537;27;47051;-52
2022/08/23 05:58:01;;;;;;;;;6.00;4.00;;;;;22.07;63.06;101161.22;5096801;27;45373;-54
2022/08/23 06:00:27;;;;;;;;;3.75;3.75;;;;;22.09;63.22;101154.56;5097583;27;45236;-54
2022/08/23 06:02:53;;;;;;;;;3.50;3.50;;;;;22.08;63.22;101163.75;5097651;27;45469;-53
2022/08/23 06:05:19;;;;;;;;;6.00;3.40;;;;;22.04;63.46;101164.38;5097299;27;45250;-54
2022/08/23 06:07:44;;;;;;;;;6.00;6.00;;;;;22.02;63.30;101170.00;5079191;27;45776;-54
2022/08/23 06:10:10;;;;;;;;;5.00;3.50;;;;;22.03;63.29;101171.66;5097014;27;45338;-55
2022/08/23 06:12:35;;;;;;;;;5.00;4.75;;;;;22.09;62.93;101167.28;5097285;27;45422;-55
2022/08/23 06:15:01;;;;;;;;;3.25;3.25;;;;;22.12;63.12;101175.84;5096918;27;46231;-54
2022/08/23 06:17:27;;;;;;;;;3.00;3.00;;;;;22.17;62.84;101178.75;5097166;27;45492;-54
2022/08/23 06:19:53;;;;;;;;;5.00;3.80;;;;;22.21;62.66;101175.63;5097485;27;45393;-54
2022/08/23 06:22:19;;;;;;;;;5.75;4.75;;;;;22.25;62.67;101179.53;5097403;27;45410;-56
2022/08/23 06:24:44;;;;;;;;;4.00;4.00;;;;;22.29;62.69;101178.06;5097306;27;47094;-55
2022/08/23 06:27:10;;;;;;;;;7.00;5.00;;;;;22.32;62.31;101177.66;5097143;27;45391;-54
2022/08/23 06:29:37;;;;;;;;;4.60;2.60;;;;;22.41;62.51;101187.22;5096691;27;45208;-54
2022/08/23 06:32:03;;;;;;;;;4.50;4.25;;;;;22.59;62.03;101187.38;5097472;27;45346;-54
2022/08/23 06:34:35;;;;;;;;;5.00;4.00;;;;;22.81;61.31;101189.75;5096976;27;46048;-53
2022/08/23 06:37:10;;;;;;;;;5.40;3.20;;;;;23.05;60.56;101194.47;5096757;27;45456;-54
2022/08/23 06:39:36;;;;;;;;;3.80;3.00;;;;;23.29;59.93;101181.97;5097045;27;45249;-55
2022/08/23 06:42:06;;;;;;;;;4.20;4.20;;;;;23.42;59.39;101181.84;5097110;27;45362;-54
2022/08/23 06:44:33;;;;;;;;;4.00;3.00;;;;;23.59;58.98;101187.56;5096824;27;45452;-53
2022/08/23 06:46:58;;;;;;;;;4.60;3.00;;;;;23.71;58.70;101186.88;5096916;27;45277;-54
2022/08/23 06:49:26;;;;;;;;;5.25;4.75;;;;;23.75;58.63;101188.94;5097105;27;45251;-53
2022/08/23 06:51:55;;;;;;;;;3.80;3.60;;;;;23.76;58.44;101181.63;5097018;27;45384;-55
2022/08/23 06:54:27;;;;;;;;;3.20;3.20;;;;;23.72;58.45;101186.66;5096889;27;47192;-55
2022/08/23 06:56:53;;;;;;;;;5.80;4.00;;;;;23.73;58.49;101190.22;5098662;27;45379;-56
2022/08/23 06:59:20;;;;;;;;;8.60;4.20;;;;;23.72;58.46;101192.09;5100322;27;45421;-54
2022/08/23 07:01:46;;;;;;;;;5.00;3.40;;;;;23.92;58.24;101199.22;5100319;27;45441;-53
2022/08/23 07:04:13;;;;;;;;;3.75;3.00;;;;;24.14;57.38;101190.44;5099998;27;46169;-53
2022/08/23 07:06:39;;;;;;;;;5.00;5.00;;;;;24.46;56.92;101193.03;5099850;27;45329;-52
2022/08/23 07:09:05;;;;;;;;;4.00;4.00;;;;;24.75;56.71;101194.13;5100134;27;45435;-54
2022/08/23 07:11:31;;;;;;;;;8.00;5.00;;;;;25.15;55.51;101196.31;5100213;27;45358;-54
2022/08/23 07:14:02;;;;;;;;;4.25;2.50;;;;;26.23;52.76;101199.75;5099439;27;45378;-55
2022/08/23 07:16:33;;;;;;;;;5.40;4.60;;;;;27.61;49.57;101203.25;5099942;27;45361;-55
2022/08/23 07:18:59;;;;;;;;;5.20;3.20;;;;;27.97;48.00;101192.88;5100091;27;45373;-55
2022/08/23 07:21:25;;;;;;;;;3.25;3.00;;;;;28.83;46.13;101191.28;5099922;27;45581;-54
2022/08/23 07:23:50;;;;;;;;;3.50;3.50;;;;;29.88;44.53;101198.25;5099667;27;47163;-54
2022/08/23 07:26:17;;;;;;;;;4.00;4.00;;;;;30.78;42.32;101199.81;5099862;27;45388;-54
2022/08/23 07:28:43;;;;;;;;;5.20;4.00;;;;;31.24;40.97;101207.31;5100244;27;45396;-54
2022/08/23 07:31:13;;;;;;;;;4.00;3.75;;;;;30.97;42.38;101207.53;5100152;27;45197;-54
2022/08/23 07:33:39;;;;;;;;;6.60;4.40;;;;;30.26;42.69;101200.69;5099712;27;45395;-54
2022/08/23 07:36:06;;;;;;;;;3.75;3.75;;;;;29.82;43.88;101214.66;5099534;27;45365;-54
2022/08/23 07:38:31;;;;;;;;;4.60;4.60;;;;;29.50;43.67;101200.16;5099456;27;45391;-55
2022/08/23 07:40:57;;;;;;;;;6.00;5.00;;;;;29.33;44.25;101216.72;5099753;27;45395;-53
2022/08/23 07:43:22;;;;;;;;;8.00;6.00;;;;;29.47;43.85;101214.38;5099507;27;45334;-55
2022/08/23 07:45:48;;;;;;;;;6.00;4.75;;;;;29.83;43.34;101204.50;5080914;27;45453;-54
2022/08/23 07:48:14;;;;;;;;;4.75;3.00;;;;;29.75;44.19;101214.09;5081141;27;45408;-54
2022/08/23 07:50:39;;;;;;;;;4.50;4.50;;;;;29.43;44.68;101213.25;5099731;27;45476;-54
2022/08/23 07:53:06;;;;;;;;;7.00;4.25;;;;;29.16;45.03;101216.00;5099490;27;46309;-54
2022/08/23 07:55:31;;;;;;;;;5.80;4.40;;;;;28.95;45.56;101218.50;5099504;27;45272;-55
2022/08/23 07:57:57;;;;;;;;;4.75;4.75;;;;;28.67;46.01;101218.72;5099121;27;45375;-55
2022/08/23 08:00:22;;;;;;;;;4.00;4.00;;;;;28.42;46.81;101217.31;5099736;27;45399;-55
2022/08/23 08:02:47;;;;;;;;;6.00;4.00;;;;;28.30;46.34;101222.88;5099220;27;45930;-54
2022/08/23 08:05:13;;;;;;;;;9.25;7.25;;;;;28.26;46.97;101227.19;5099427;27;45365;-55
2022/08/23 08:07:38;;;;;;;;;4.75;4.75;;;;;28.08;46.93;101219.31;5098587;27;45453;-54
2022/08/23 08:10:04;;;;;;;;;6.00;6.00;;;;;27.83;47.15;101212.38;5099636;27;45341;-53
2022/08/23 08:12:32;;;;;;;;;6.60;6.00;;;;;27.78;47.29;101219.69;5099234;27;46143;-55
2022/08/23 08:14:58;;;;;;;;;8.00;8.00;;;;;27.83;47.34;101225.22;5098794;27;45408;-55
2022/08/23 08:17:24;;;;;;;;;8.00;5.00;;;;;27.95;46.57;101228.69;5099560;27;45313;-55
2022/08/23 08:19:49;;;;;;;;;6.25;4.00;;;;;28.27;46.68;101223.38;5099316;27;45379;-54
2022/08/23 08:22:14;;;;;;;;;5.00;5.00;;;;;28.68;45.97;101217.63;5098793;27;46077;-52
2022/08/23 08:24:40;;;;;;;;;9.00;6.50;;;;;29.25;45.06;101222.69;5098072;27;45480;-54
2022/08/23 08:27:05;;;;;;;;;8.50;6.75;;;;;29.85;43.64;101224.28;5099024;27;45246;-53
2022/08/23 08:29:31;;;;;;;;;9.00;7.75;;;;;30.70;41.58;101226.94;5099017;27;45526;-54
2022/08/23 08:31:57;;;;;;;;;8.25;7.00;;;;;31.32;40.46;101215.06;5098209;27;45716;-54
2022/08/23 08:34:22;;;;;;;;;9.25;7.25;;;;;31.61;39.99;101223.59;5098611;27;45173;-55
2022/08/23 08:36:52;;;;;;;;;8.25;6.00;;;;;31.28;41.43;101225.75;5080452;27;45266;-54
2022/08/23 08:39:25;;;;;;;;;8.00;7.60;;;;;30.96;41.67;101236.13;5098766;27;45554;-55
2022/08/23 08:42:00;;;;;;;;;7.40;6.80;;;;;30.76;41.52;101236.88;5098614;27;45513;-54
2022/08/23 08:44:40;;;;;;;;;8.00;6.40;;;;;30.59;42.04;101231.56;5098703;27;45373;-54
2022/08/23 08:47:24;;;;;;;;;10.80;9.20;;;;;30.54;41.82;101228.81;5098934;27;45417;-54
2022/08/23 08:49:58;;;;;;;;;7.40;6.40;;;;;30.50;42.06;101233.19;5098900;27;45481;-55
2022/08/23 08:52:34;;;;;;;;;7.00;5.80;;;;;30.46;42.17;101229.31;5098185;27;47083;-54
2022/08/23 08:55:11;;;;;;;;;7.20;6.00;;;;;30.33;42.38;101230.63;5098307;27;45488;-54
2022/08/23 08:57:44;;;;;;;;;6.40;6.40;;;;;30.24;42.93;101240.47;5098874;27;45226;-55
2022/08/23 09:00:14;;;;;;;;;10.40;8.00;;;;;30.15;42.73;101240.16;5098611;27;45528;-55
2022/08/23 09:02:41;;;;;;;;;7.00;6.40;;;;;30.13;42.89;101246.94;5098312;27;47114;-54
2022/08/23 09:05:14;;;;;;;;;8.00;8.00;;;;;30.11;42.89;101240.91;5098273;27;45380;-52
2022/08/23 09:07:51;;;;;;;;;9.80;8.00;;;;;30.17;42.42;101250.84;5098428;27;45439;-53
2022/08/23 09:10:45;;;;;;;;;9.60;6.20;;;;;30.26;42.24;101241.88;5098340;27;45385;-53
2022/08/23 09:13:17;;;;;;;;;5.00;4.00;;;;;30.32;42.25;101246.28;5098231;27;45441;-52
2022/08/23 09:15:57;;;;;;;;;5.40;5.40;;;;;30.43;42.97;101247.16;5098293;27;45160;-53
2022/08/23 09:18:23;;;;;;;;;8.80;8.60;;;;;31.17;41.14;101239.72;5098275;27;45333;-53
2022/08/23 09:20:52;;;;;;;;;12.25;8.00;;;;;31.30;40.33;101242.78;5097273;27;45378;-53
2022/08/23 09:23:30;;;;;;;;;8.80;6.60;;;;;31.66;40.45;101222.75;5097734;27;46501;-54
2022/08/23 09:26:00;;;;;;;;;8.20;6.40;;;;;31.63;40.04;101242.53;5098161;27;45408;-54
2022/08/23 09:28:29;;;;;;;;;6.40;6.40;;;;;31.29;40.98;101245.84;5097984;27;45393;-53
2022/08/23 09:30:56;;;;;;;;;10.60;7.00;;;;;31.11;41.11;101251.81;5098224;27;45256;-53
2022/08/23 09:33:25;;;;;;;;;6.40;5.80;;;;;31.13;41.56;101242.19;5097702;27;46280;-54
2022/08/23 09:36:24;;;;;;;;;9.20;9.00;;;;;31.32;41.08;101245.28;5098023;27;45448;-53
2022/08/23 09:39:03;;;;;;;;;8.40;6.00;;;;;31.82;40.18;101246.41;5097119;27;45294;-54
2022/08/23 09:41:40;;;;;;;;;7.60;7.20;;;;;32.73;38.22;101242.59;5097972;27;45569;-53
2022/08/23 09:44:12;;;;;;;;;9.40;6.60;;;;;33.10;37.72;101240.50;5097741;27;45994;-53
2022/08/23 09:46:40;;;;;;;;;5.80;5.80;;;;;33.51;37.24;101247.38;5097597;27;45279;-54
2022/08/23 09:49:27;;;;;;;;;9.40;7.00;;;;;33.69;36.51;101239.50;5097788;27;45381;-53
2022/08/23 09:51:55;;;;;;;;;6.00;6.00;;;;;34.87;34.80;101247.31;5097688;27;45469;-55
2022/08/23 09:54:23;;;;;;;;;6.40;5.80;;;;;35.30;33.70;101248.09;5097444;27;45576;-54
2022/08/23 09:56:59;;;;;;;;;6.80;5.00;;;;;36.86;32.92;101239.06;5097319;27;45264;-55
2022/08/23 09:59:25;;;;;;;;;7.40;6.20;;;;;38.20;30.29;101232.69;5097565;27;45308;-54
2022/08/23 10:01:54;;;;;;;;;3.00;3.00;;;;;39.94;27.62;101223.56;5097627;27;45520;-54
2022/08/23 10:04:24;;;;;;;;;7.40;5.60;;;;;40.57;27.08;101228.22;5097270;27;45247;-53
2022/08/23 10:06:50;;;;;;;;;4.00;4.00;;;;;41.27;25.93;101228.50;5097447;27;45445;-54
2022/08/23 10:09:22;;;;;;;;;3.00;3.00;;;;;41.36;26.33;101237.59;5097333;27;45582;-55
2022/08/23 10:11:47;;;;;;;;;3.20;3.20;;;;;43.31;23.62;101229.53;5097726;27;45254;-54
2022/08/23 10:14:19;;;;;;;;;3.50;3.00;;;;;44.54;22.08;101226.66;5097191;27;46112;-53
2022/08/23 10:16:56;;;;;;;;;2.80;2.80;;;;;45.42;22.92;101224.16;5097468;27;45223;-55
2022/08/23 10:19:33;;;;;;;;;2.00;2.00;;;;;46.18;21.61;101215.84;5097545;27;45367;-53
2022/08/23 10:22:11;;;;;;;;;4.20;3.00;;;;;47.19;20.06;101215.19;5097612;27;45585;-55
2022/08/23 10:25:02;;;;;;;;;4.00;2.00;;;;;47.86;19.75;101209.41;5097014;27;46201;-55
2022/08/23 10:30:50;;;;;;;;;3.00;2.60;;;;;49.47;17.47;101212.25;5097246;27;45254;-55
2022/08/23 10:33:23;;;;;;;;;6.00;1.40;;;;;47.73;19.01;101220.19;5101024;27;45384;-54
2022/08/23 10:36:18;;;;;;;;;1.80;1.80;;;;;48.77;17.80;101218.09;5100424;27;47195;-54
2022/08/23 10:39:05;;;;;;;;;1.60;0.80;;;;;45.71;20.45;101208.59;5100288;27;45370;-54
2022/08/23 10:41:50;;;;;;;;;2.00;2.00;;;;;43.51;23.31;101210.91;5100611;27;45337;-55
2022/08/23 10:44:32;;;;;;;;;1.60;1.60;;;;;43.75;22.23;101207.13;5100929;27;45371;-54
2022/08/23 10:47:15;;;;;;;;;1.40;1.40;;;;;42.91;23.31;101201.59;5100296;27;45443;-55
2022/08/23 10:49:41;;;;;;;;;3.60;2.00;;;;;41.73;24.30;101187.44;5100301;27;45357;-55
2022/08/23 10:52:14;;;;;;;;;3.80;2.20;;;;;40.32;25.97;101204.88;5099695;27;45453;-54
2022/08/23 10:54:59;;;;;;;;;2.80;2.80;;;;;39.02;27.41;101193.28;5100531;27;45399;-54
2022/08/23 10:57:34;;;;;;;;;2.00;2.00;;;;;39.31;27.82;101206.53;5100158;27;46394;-55
2022/08/23 11:00:05;;;;;;;;;4.80;3.00;;;;;40.90;25.01;101196.78;5100271;27;45340;-54
2022/08/23 11:02:43;;;;;;;;;3.40;3.40;;;;;43.23;23.59;101185.69;5100499;27;45237;-54
2022/08/23 11:05:34;;;;;;;;;1.00;1.00;;;;;43.31;24.08;101199.53;5100397;27;45343;-55
2022/08/23 11:08:06;;;;;;;;;2.00;2.00;;;;;43.44;23.33;101200.28;5099988;27;46013;-55
2022/08/23 11:10:40;;;;;;;;;2.00;2.00;;;;;41.31;24.39;101195.13;5099744;27;45356;-54
2022/08/23 11:13:23;;;;;;;;;1.60;1.60;;;;;40.24;25.88;101177.06;5100296;27;45253;-54
2022/08/23 11:16:04;;;;;;;;;1.20;1.20;;;;;38.88;27.59;101197.03;5100603;27;45298;-56
2022/08/23 11:18:32;;;;;;;;;0.80;0.80;;;;;38.72;27.61;101195.84;5100062;27;46234;-54
2022/08/23 11:21:03;;;;;;;;;1.00;1.00;;;;;37.74;28.99;101197.00;5099956;27;45472;-53
2022/08/23 11:23:58;;;;;;;;;0.00;0.00;;;;;36.94;29.99;101209.81;5100127;27;45214;-54
2022/08/23 11:26:26;;;;;;;;;0.40;0.40;;;;;36.40;30.76;101192.13;5037247;28;45393;-54
2022/08/23 11:28:55;;;;;;;;;0.00;0.00;;;;;35.53;31.82;101201.28;5036893;28;45415;-54
2022/08/23 11:31:29;;;;;;;;;0.80;0.80;;;;;35.00;32.83;101200.44;5036806;28;45480;-54
2022/08/23 11:34:05;;;;;;;;;1.00;0.20;;;;;35.07;31.51;101202.81;5036825;28;45516;-54
2022/08/23 11:36:32;;;;;;;;;3.00;1.00;;;;;34.61;32.13;101199.88;5036790;28;45330;-52
2022/08/23 11:39:00;;;;;;;;;0.80;0.80;;;;;34.01;33.74;101194.78;5052324;28;45389;-53
2022/08/23 11:41:27;;;;;;;;;1.60;0.00;;;;;33.39;34.89;101200.00;5036399;28;45413;-51
2022/08/23 11:43:55;;;;;;;;;1.00;1.00;;;;;34.20;34.28;101203.13;5035611;28;45361;-55
2022/08/23 11:46:24;;;;;;;;;0.80;0.80;;;;;36.26;31.27;101194.91;5036805;28;45381;-54